Time;durP1;ratioP1;P1;durP2;ratioP2;P2;SDS_P1;SDS_P2;PMS_P1;PMS_P2;Temp;Humidity;BMP_temperature;BMP_pressure;BME280_temperature;BME280_humidity;BME280_pressure;Samples;Min_cycle;Max_cycle;Signal;HPM_P1;HPM_P2
2023/06/09 00:01:25;;;;;;;8.03;4.80;;;;;;;16.43;100.00;101879.97;5059089;28;20610;-71
2023/06/09 00:03:55;;;;;;;7.50;5.27;;;;;;;16.39;100.00;101883.31;5058587;28;20304;-70
2023/06/09 00:06:22;;;;;;;8.73;5.47;;;;;;;16.32;100.00;101894.47;5062450;28;20193;-70
2023/06/09 00:08:51;;;;;;;7.73;5.20;;;;;;;16.22;100.00;101884.84;5064405;28;20288;-71
2023/06/09 00:11:17;;;;;;;9.00;5.30;;;;;;;16.22;100.00;101891.72;5065246;28;20284;-70
2023/06/09 00:13:42;;;;;;;7.23;4.60;;;;;;;16.18;100.00;101887.34;5061645;28;20216;-71
2023/06/09 00:16:08;;;;;;;9.53;5.40;;;;;;;16.05;100.00;101901.84;5058953;28;20291;-71
2023/06/09 00:18:34;;;;;;;8.23;5.67;;;;;;;15.95;100.00;101902.56;5070145;28;20213;-71
2023/06/09 00:21:00;;;;;;;7.40;4.90;;;;;;;15.92;100.00;101896.44;5065787;28;20205;-71
2023/06/09 00:23:28;;;;;;;6.80;5.43;;;;;;;15.83;100.00;101904.94;5063846;28;20220;-70
2023/06/09 00:25:54;;;;;;;6.50;4.47;;;;;;;15.80;100.00;101899.72;5070113;28;20192;-71
2023/06/09 00:28:20;;;;;;;9.20;5.27;;;;;;;15.78;100.00;101900.53;5068471;28;20276;-71
2023/06/09 00:30:46;;;;;;;8.47;5.23;;;;;;;15.65;100.00;101896.91;5068282;28;20196;-72
2023/06/09 00:33:11;;;;;;;9.17;4.93;;;;;;;15.62;100.00;101912.38;5060869;28;20216;-70
2023/06/09 00:35:36;;;;;;;7.93;5.00;;;;;;;15.58;100.00;101910.59;5066218;28;20197;-71
2023/06/09 00:38:02;;;;;;;7.77;5.13;;;;;;;15.47;100.00;101908.66;5077876;28;20190;-71
2023/06/09 00:40:28;;;;;;;9.67;5.63;;;;;;;15.47;100.00;101898.34;5068057;28;20196;-71
2023/06/09 00:42:54;;;;;;;7.43;5.47;;;;;;;15.45;100.00;101900.00;5064563;28;20224;-72
2023/06/09 00:45:20;;;;;;;8.47;5.23;;;;;;;15.36;100.00;101897.28;5068279;28;20192;-71
2023/06/09 00:47:45;;;;;;;7.23;4.90;;;;;;;15.36;100.00;101886.94;5066798;28;20203;-71
2023/06/09 00:50:12;;;;;;;6.63;5.00;;;;;;;15.21;100.00;101899.56;5065506;28;20287;-70
2023/06/09 00:52:40;;;;;;;8.20;4.93;;;;;;;15.26;100.00;101892.78;5046123;28;20253;-70
2023/06/09 00:55:06;;;;;;;8.50;5.00;;;;;;;15.28;100.00;101901.44;5067375;28;20203;-71
2023/06/09 00:57:33;;;;;;;8.77;5.10;;;;;;;15.21;100.00;101897.88;5066771;28;20276;-71
2023/06/09 01:00:00;;;;;;;8.07;5.17;;;;;;;15.13;100.00;101907.19;5063613;28;20214;-71
2023/06/09 01:02:26;;;;;;;8.33;5.63;;;;;;;15.09;100.00;101900.22;5069023;28;20208;-71
2023/06/09 01:04:54;;;;;;;7.23;5.07;;;;;;;15.09;100.00;101887.31;5065074;28;20335;-71
2023/06/09 01:07:30;;;;;;;6.47;5.03;;;;;;;15.08;100.00;101875.28;5062978;28;20253;-70
2023/06/09 01:10:21;;;;;;;8.27;5.33;;;;;;;14.99;100.00;101879.38;5080071;28;20199;-71
2023/06/09 01:13:36;;;;;;;9.87;5.80;;;;;;;14.92;100.00;101872.38;5068809;28;20224;-70
2023/06/09 01:16:08;;;;;;;7.73;5.17;;;;;;;14.96;100.00;101853.56;5059843;28;20240;-72
2023/06/09 01:18:36;;;;;;;9.97;5.40;;;;;;;14.91;100.00;101842.28;5063587;28;20217;-71
2023/06/09 01:21:17;;;;;;;9.33;5.50;;;;;;;14.82;100.00;101827.50;5067781;28;20193;-71
2023/06/09 01:24:20;;;;;;;7.47;5.60;;;;;;;14.82;100.00;101775.91;5064024;28;20217;-70
2023/06/09 01:26:50;;;;;;;8.67;6.27;;;;;;;14.77;100.00;101763.78;5084078;28;20573;-71
2023/06/09 01:29:19;;;;;;;9.93;6.07;;;;;;;14.75;100.00;101766.34;5066352;28;20188;-71
2023/06/09 01:31:47;;;;;;;13.10;6.53;;;;;;;14.73;100.00;101773.19;5071008;28;20220;-71
2023/06/09 01:34:13;;;;;;;13.57;6.23;;;;;;;14.67;100.00;101773.09;5065289;28;20205;-71
2023/06/09 01:36:40;;;;;;;8.60;5.83;;;;;;;14.59;100.00;101777.22;5065297;28;20218;-71
2023/06/09 01:39:07;;;;;;;8.53;6.13;;;;;;;14.64;100.00;101778.19;5064853;28;20756;-71
2023/06/09 01:41:33;;;;;;;9.57;5.90;;;;;;;14.61;100.00;101779.84;5062637;28;20193;-72
2023/06/09 01:43:59;;;;;;;10.47;5.70;;;;;;;14.56;100.00;101784.94;5067427;28;20228;-71
2023/06/09 01:46:24;;;;;;;9.87;6.40;;;;;;;14.55;100.00;101784.88;5064876;28;20189;-70
2023/06/09 01:49:01;;;;;;;9.93;6.03;;;;;;;14.51;100.00;101780.50;5067080;28;20575;-70
2023/06/09 01:51:36;;;;;;;20.17;6.60;;;;;;;14.47;100.00;101787.34;5074836;28;20185;-70
2023/06/09 01:54:10;;;;;;;10.57;6.40;;;;;;;14.47;100.00;101791.59;5062937;28;20198;-70
2023/06/09 01:56:47;;;;;;;9.33;6.33;;;;;;;14.42;100.00;101783.81;5064509;28;20193;-70
2023/06/09 01:59:19;;;;;;;10.13;6.53;;;;;;;14.41;100.00;101778.63;5068653;28;20216;-70
2023/06/09 02:01:47;;;;;;;9.40;6.40;;;;;;;14.34;100.00;101779.31;5076664;28;20209;-70
2023/06/09 02:04:14;;;;;;;10.53;7.03;;;;;;;14.29;100.00;101773.22;5062298;28;20284;-70
2023/06/09 02:06:40;;;;;;;10.40;6.70;;;;;;;14.16;100.00;101772.09;5060582;28;20193;-71
2023/06/09 02:09:06;;;;;;;9.53;6.30;;;;;;;14.19;100.00;101768.69;5062885;28;20650;-70
2023/06/09 02:11:31;;;;;;;12.03;7.13;;;;;;;14.16;100.00;101769.50;5066800;28;20188;-70
2023/06/09 02:13:57;;;;;;;9.50;6.40;;;;;;;14.16;100.00;101776.34;5064041;28;20213;-70
2023/06/09 02:16:24;;;;;;;9.13;6.43;;;;;;;14.14;100.00;101771.16;5065617;28;20185;-70
2023/06/09 02:18:51;;;;;;;9.53;6.73;;;;;;;14.16;100.00;101777.22;5063846;28;20335;-70
2023/06/09 02:21:16;;;;;;;11.37;6.70;;;;;;;14.10;100.00;101766.81;5064663;28;20204;-70
2023/06/09 02:23:42;;;;;;;10.60;6.27;;;;;;;14.08;100.00;101775.34;5061660;28;20208;-70
2023/06/09 02:26:07;;;;;;;9.13;5.87;;;;;;;14.05;100.00;101773.56;5062497;28;20192;-70
2023/06/09 02:28:33;;;;;;;7.83;6.10;;;;;;;14.00;100.00;101777.75;5062453;28;20269;-71
2023/06/09 02:30:59;;;;;;;10.20;6.90;;;;;;;14.01;100.00;101768.31;5066619;28;20300;-70
2023/06/09 02:33:26;;;;;;;11.67;6.43;;;;;;;13.99;100.00;101775.16;5062898;28;20212;-70
2023/06/09 02:35:53;;;;;;;10.63;7.10;;;;;;;14.02;100.00;101770.06;5078592;28;20192;-71
2023/06/09 02:38:21;;;;;;;10.80;6.97;;;;;;;13.95;100.00;101775.94;5083682;28;20338;-71
2023/06/09 02:40:49;;;;;;;9.20;6.57;;;;;;;13.90;100.00;101770.66;5065765;28;20204;-71
2023/06/09 02:43:15;;;;;;;10.43;6.30;;;;;;;13.92;100.00;101776.75;5075775;28;20712;-70
2023/06/09 02:45:41;;;;;;;10.67;7.13;;;;;;;13.94;100.00;101776.75;5060946;28;20186;-70
2023/06/09 02:48:08;;;;;;;11.53;6.97;;;;;;;13.91;100.00;101781.84;5064847;28;20197;-70
2023/06/09 02:50:34;;;;;;;10.13;6.90;;;;;;;13.88;100.00;101772.38;5062876;28;20253;-70
2023/06/09 02:53:02;;;;;;;9.07;6.70;;;;;;;13.87;100.00;101774.91;5049581;28;20209;-70
2023/06/09 02:55:29;;;;;;;12.67;7.47;;;;;;;13.81;100.00;101772.22;5053116;28;20193;-70
2023/06/09 02:57:54;;;;;;;11.27;7.20;;;;;;;13.82;100.00;101774.81;5067485;28;20196;-70
2023/06/09 03:00:23;;;;;;;10.53;6.27;;;;;;;13.84;100.00;101778.28;5072915;28;20209;-70
2023/06/09 03:02:51;;;;;;;10.33;6.77;;;;;;;13.87;100.00;101770.63;5058580;28;20602;-71
2023/06/09 03:05:20;;;;;;;13.50;7.07;;;;;;;13.87;100.00;101774.91;5059147;28;20709;-70
2023/06/09 03:07:49;;;;;;;11.40;6.70;;;;;;;13.83;100.00;101773.09;5064469;28;20189;-70
2023/06/09 03:10:15;;;;;;;10.53;7.37;;;;;;;13.87;100.00;101780.03;5080124;28;20231;-70
2023/06/09 03:12:43;;;;;;;12.20;7.20;;;;;;;13.84;100.00;101782.53;5064165;28;20236;-71
2023/06/09 03:15:09;;;;;;;13.37;7.20;;;;;;;13.80;100.00;101779.03;5066923;28;20888;-70
2023/06/09 03:17:35;;;;;;;10.37;7.10;;;;;;;13.84;100.00;101783.44;5062345;28;20571;-71
2023/06/09 03:20:01;;;;;;;9.57;7.57;;;;;;;13.83;100.00;101783.38;5073550;28;20209;-71
2023/06/09 03:22:28;;;;;;;11.00;6.73;;;;;;;13.92;100.00;101775.88;5056201;28;20346;-70
2023/06/09 03:24:54;;;;;;;11.00;7.20;;;;;;;13.90;100.00;101780.97;5063556;28;20195;-71
2023/06/09 03:27:20;;;;;;;10.67;6.90;;;;;;;13.88;100.00;101780.09;5047215;28;20192;-70
2023/06/09 03:29:46;;;;;;;12.20;7.23;;;;;;;13.91;100.00;101787.00;5058400;28;20185;-71
2023/06/09 03:32:11;;;;;;;10.07;7.20;;;;;;;13.93;100.00;101775.91;5057693;28;20210;-70
2023/06/09 03:34:40;;;;;;;9.43;7.77;;;;;;;13.97;100.00;101784.53;5066510;28;20213;-70
2023/06/09 03:37:09;;;;;;;6.97;6.37;;;;;;;13.96;100.00;101783.69;5064792;28;20601;-70
2023/06/09 03:39:34;;;;;;;10.53;6.43;;;;;;;13.96;100.00;101795.69;5068308;28;20989;-70
2023/06/09 03:42:00;;;;;;;11.20;6.80;;;;;;;13.97;100.00;101800.00;5066273;28;20712;-71
2023/06/09 03:44:26;;;;;;;13.50;7.80;;;;;;;13.90;100.00;101801.56;5050459;28;20221;-70
2023/06/09 03:46:53;;;;;;;13.03;7.43;;;;;;;14.00;100.00;101800.91;5043241;28;20193;-70
2023/06/09 03:49:18;;;;;;;13.50;7.47;;;;;;;14.09;100.00;101806.25;5059665;28;20192;-70
2023/06/09 03:51:45;;;;;;;10.60;6.40;;;;;;;14.08;100.00;101801.09;5058411;28;20193;-70
2023/06/09 03:54:10;;;;;;;11.53;7.27;;;;;;;14.15;100.00;101805.53;5064442;28;20258;-71
2023/06/09 03:56:36;;;;;;;9.47;7.13;;;;;;;14.19;100.00;101791.88;5067575;28;20240;-70
2023/06/09 03:59:01;;;;;;;12.03;8.17;;;;;;;14.20;100.00;101786.78;5047721;28;20304;-70
2023/06/09 04:01:28;;;;;;;12.10;7.23;;;;;;;14.22;100.00;101782.53;5064730;28;20651;-71
2023/06/09 04:03:53;;;;;;;10.07;7.23;;;;;;;14.26;100.00;101784.34;5051964;28;20239;-70
2023/06/09 04:06:19;;;;;;;12.60;7.73;;;;;;;14.29;100.00;101781.81;5050280;28;20731;-70
2023/06/09 04:08:44;;;;;;;9.57;7.27;;;;;;;14.36;100.00;101780.25;5079279;28;20642;-70
2023/06/09 04:11:11;;;;;;;11.43;7.13;;;;;;;14.40;100.00;101782.88;5069484;28;20244;-71
2023/06/09 04:13:38;;;;;;;11.70;7.20;;;;;;;14.48;100.00;101780.44;5043719;28;20224;-71
2023/06/09 04:16:05;;;;;;;11.70;7.40;;;;;;;14.55;100.00;101782.31;5064260;28;20201;-71
2023/06/09 04:18:31;;;;;;;12.53;7.57;;;;;;;14.61;100.00;101790.16;5063508;28;20245;-71
2023/06/09 04:20:57;;;;;;;12.57;7.20;;;;;;;14.69;100.00;101788.59;5063886;28;20192;-71
2023/06/09 04:23:22;;;;;;;10.73;7.17;;;;;;;14.77;100.00;101781.81;5064808;28;20810;-71
2023/06/09 04:25:48;;;;;;;13.27;7.40;;;;;;;14.84;100.00;101781.09;5049534;28;20229;-71
2023/06/09 04:28:17;;;;;;;12.73;6.87;;;;;;;14.92;100.00;101779.53;5060872;28;20202;-71
2023/06/09 04:30:45;;;;;;;12.27;7.07;;;;;;;15.00;100.00;101790.81;5062810;28;20300;-71
2023/06/09 04:33:13;;;;;;;9.07;6.70;;;;;;;15.10;100.00;101787.59;5047208;28;21025;-71
2023/06/09 04:35:41;;;;;;;11.17;6.83;;;;;;;15.21;100.00;101784.31;5068415;28;20193;-71
2023/06/09 04:38:08;;;;;;;13.67;6.83;;;;;;;15.32;100.00;101789.63;5064007;28;20196;-71
2023/06/09 04:40:37;;;;;;;9.47;6.90;;;;;;;15.40;100.00;101788.06;5043969;28;20205;-71
2023/06/09 04:43:05;;;;;;;14.10;6.83;;;;;;;15.46;100.00;101781.28;5048749;28;20210;-71
2023/06/09 04:45:34;;;;;;;8.47;6.57;;;;;;;15.57;100.00;101792.63;5050291;28;20197;-71
2023/06/09 04:48:07;;;;;;;10.53;6.67;;;;;;;15.67;100.00;101793.63;5062213;28;20196;-71
2023/06/09 04:50:33;;;;;;;11.00;6.63;;;;;;;15.78;100.00;101795.53;5066190;28;20283;-71
2023/06/09 04:53:03;;;;;;;12.00;7.70;;;;;;;15.88;100.00;101799.97;5045211;28;20304;-71
2023/06/09 04:55:32;;;;;;;12.50;7.07;;;;;;;16.00;100.00;101807.00;5064178;28;20186;-71
2023/06/09 04:57:58;;;;;;;11.10;6.87;;;;;;;16.10;100.00;101809.72;5063544;28;20190;-71
2023/06/09 05:00:26;;;;;;;11.17;6.57;;;;;;;16.22;100.00;101811.59;5047051;28;20694;-71
2023/06/09 05:02:54;;;;;;;11.10;7.10;;;;;;;16.33;100.00;101805.69;5058148;28;20308;-71
2023/06/09 05:05:20;;;;;;;11.93;6.63;;;;;;;16.42;100.00;101812.72;5059608;28;20193;-71
2023/06/09 05:07:46;;;;;;;14.30;7.10;;;;;;;16.54;100.00;101808.53;5060270;28;20198;-71
2023/06/09 05:10:12;;;;;;;11.77;6.90;;;;;;;16.63;100.00;101794.84;5048566;28;20208;-71
2023/06/09 05:12:38;;;;;;;13.30;6.90;;;;;;;16.70;100.00;101770.78;5048967;28;20213;-71
2023/06/09 05:15:05;;;;;;;12.83;7.20;;;;;;;16.81;100.00;101780.38;5049231;28;20259;-71
2023/06/09 05:17:53;;;;;;;12.47;7.23;;;;;;;16.92;100.00;101783.94;5048434;28;20208;-71
2023/06/09 05:20:18;;;;;;;8.87;5.83;;;;;;;17.08;100.00;101788.38;5059994;28;20299;-71
2023/06/09 05:22:45;;;;;;;13.83;7.07;;;;;;;17.22;100.00;101791.09;5037131;28;20632;-70
2023/06/09 05:25:14;;;;;;;9.27;6.50;;;;;;;17.30;100.00;101776.44;5065058;28;20733;-71
2023/06/09 05:27:39;;;;;;;12.47;6.87;;;;;;;17.40;100.00;101780.91;5061591;28;20212;-71
2023/06/09 05:30:06;;;;;;;12.57;6.50;;;;;;;17.55;100.00;101781.84;5047624;28;20679;-71
2023/06/09 05:32:32;;;;;;;14.30;6.87;;;;;;;17.67;100.00;101761.19;5050217;28;20213;-70
2023/06/09 05:34:57;;;;;;;11.80;6.73;;;;;;;17.72;100.00;101756.91;5058468;28;20201;-71
2023/06/09 05:37:23;;;;;;;16.03;7.00;;;;;;;17.86;100.00;101711.19;5047766;28;20327;-71
2023/06/09 05:39:48;;;;;;;10.90;6.60;;;;;;;17.95;100.00;101724.16;5065381;28;20690;-71
2023/06/09 05:42:15;;;;;;;10.10;5.70;;;;;;;18.09;100.00;101695.69;5053873;28;20555;-71
2023/06/09 05:44:40;;;;;;;11.63;6.87;;;;;;;18.15;100.00;101719.06;5045847;28;20208;-71
2023/06/09 05:47:06;;;;;;;10.73;5.97;;;;;;;18.33;100.00;101703.56;5046655;28;20185;-71
2023/06/09 05:49:33;;;;;;;9.63;6.07;;;;;;;18.44;100.00;101670.72;5050032;28;20201;-71
2023/06/09 05:51:58;;;;;;;10.60;5.53;;;;;;;18.60;100.00;101675.06;5047356;28;20217;-71
2023/06/09 05:54:24;;;;;;;12.33;5.50;;;;;;;18.73;100.00;101663.78;5046881;28;20265;-71
2023/06/09 05:56:51;;;;;;;10.27;5.90;;;;;;;18.85;100.00;101633.53;5046593;28;20191;-71
2023/06/09 05:59:20;;;;;;;12.53;6.27;;;;;;;19.00;100.00;101663.75;5048970;28;20210;-71
2023/06/09 06:01:50;;;;;;;8.83;5.37;;;;;;;19.06;100.00;101602.31;5042778;28;20202;-71
2023/06/09 06:04:15;;;;;;;10.43;5.80;;;;;;;19.14;100.00;101600.56;5046647;28;20217;-71
2023/06/09 06:06:41;;;;;;;8.53;5.80;;;;;;;19.31;100.00;101600.53;5049353;28;20563;-71
2023/06/09 06:09:06;;;;;;;10.20;5.70;;;;;;;19.47;100.00;101579.66;5045731;28;20213;-70
2023/06/09 06:11:32;;;;;;;10.33;5.50;;;;;;;19.57;100.00;101554.50;5041794;28;20666;-71
2023/06/09 06:13:57;;;;;;;10.83;5.70;;;;;;;19.63;100.00;101550.09;5046547;28;20578;-71
2023/06/09 06:16:23;;;;;;;9.60;6.07;;;;;;;19.81;100.00;101557.78;5044888;28;20284;-71
2023/06/09 06:18:48;;;;;;;10.27;5.83;;;;;;;19.95;100.00;101557.72;5047999;28;20220;-71
2023/06/09 06:21:14;;;;;;;11.53;5.80;;;;;;;20.01;100.00;101563.72;5048916;28;20204;-71
2023/06/09 06:23:39;;;;;;;9.93;6.10;;;;;;;20.13;100.00;101552.41;5045478;28;20253;-71
2023/06/09 06:26:05;;;;;;;8.70;6.17;;;;;;;20.27;100.00;101556.59;5047969;28;20221;-71
2023/06/09 06:28:31;;;;;;;10.33;5.70;;;;;;;20.42;100.00;101572.09;5050500;28;20710;-71
2023/06/09 06:30:56;;;;;;;10.53;6.00;;;;;;;20.56;100.00;101543.31;5046670;28;20288;-71
2023/06/09 06:33:23;;;;;;;7.97;5.60;;;;;;;20.60;100.00;101530.25;5046859;28;20305;-71
2023/06/09 06:35:49;;;;;;;10.30;5.93;;;;;;;20.79;97.23;101520.50;5048796;28;20643;-70
2023/06/09 06:38:14;;;;;;;9.77;5.07;;;;;;;20.90;97.24;101523.88;5043001;28;20198;-71
2023/06/09 06:40:42;;;;;;;10.90;6.20;;;;;;;21.04;100.00;101548.88;5046697;28;20197;-71
2023/06/09 06:43:07;;;;;;;11.10;5.70;;;;;;;21.24;98.93;101539.06;5044481;28;20245;-71
2023/06/09 06:45:56;;;;;;;11.60;5.63;;;;;;;21.40;99.41;101543.19;5043993;28;20190;-71
2023/06/09 06:48:21;;;;;;;11.53;5.60;;;;;;;21.57;94.09;101525.59;5046200;28;20236;-71
2023/06/09 06:50:47;;;;;;;9.47;5.50;;;;;;;21.65;92.20;101515.88;5047783;28;20248;-70
2023/06/09 06:53:12;;;;;;;8.97;5.63;;;;;;;21.58;85.07;101482.13;5053285;28;20221;-70
2023/06/09 06:55:38;;;;;;;9.23;5.80;;;;;;;21.64;87.24;101505.47;5046142;28;20254;-70
2023/06/09 06:58:03;;;;;;;8.03;5.20;;;;;;;21.79;85.01;101502.69;5045809;28;20708;-70
2023/06/09 07:00:29;;;;;;;11.50;5.87;;;;;;;21.81;87.29;101513.94;5046251;28;20214;-70
2023/06/09 07:02:55;;;;;;;14.67;6.27;;;;;;;21.90;88.00;101525.09;5057362;28;20279;-71
2023/06/09 07:05:21;;;;;;;11.30;5.93;;;;;;;22.15;87.97;101536.84;5042011;28;20206;-70
2023/06/09 07:07:47;;;;;;;10.20;5.70;;;;;;;22.23;85.45;101515.84;5058874;28;20561;-71
2023/06/09 07:10:13;;;;;;;11.43;6.13;;;;;;;22.13;86.73;101540.38;5045808;28;20196;-70
2023/06/09 07:12:39;;;;;;;7.70;5.37;;;;;;;22.20;86.28;101540.25;5047644;28;20209;-70
2023/06/09 07:15:05;;;;;;;10.87;5.93;;;;;;;22.08;87.63;101555.25;5056705;28;20209;-71
2023/06/09 07:17:31;;;;;;;10.10;5.97;;;;;;;22.33;82.44;101531.31;5042546;28;20938;-71
2023/06/09 07:19:57;;;;;;;13.43;6.50;;;;;;;22.62;83.26;101540.41;5052257;28;20221;-70
2023/06/09 07:22:22;;;;;;;12.30;5.53;;;;;;;22.86;82.45;101535.59;5058454;28;20245;-70
2023/06/09 07:24:47;;;;;;;8.60;5.97;;;;;;;22.86;79.80;101527.75;5047502;28;20225;-70
2023/06/09 07:27:13;;;;;;;16.77;7.27;;;;;;;22.99;78.23;101530.97;5045196;28;20201;-70
2023/06/09 07:29:41;;;;;;;8.13;5.73;;;;;;;23.16;80.45;101562.84;5046273;28;20258;-70
2023/06/09 07:32:07;;;;;;;10.10;6.00;;;;;;;23.22;78.04;101539.22;5045640;28;20637;-71
2023/06/09 07:34:33;;;;;;;10.93;6.23;;;;;;;23.35;74.97;101538.06;5046139;28;20251;-70
2023/06/09 07:37:00;;;;;;;9.33;6.03;;;;;;;23.57;75.92;101557.63;5049486;28;20190;-70
2023/06/09 07:39:26;;;;;;;9.37;5.73;;;;;;;23.62;75.68;101574.09;5047610;28;20694;-70
2023/06/09 07:41:51;;;;;;;8.80;5.70;;;;;;;23.84;73.46;101570.94;5047431;28;20288;-70
2023/06/09 07:44:17;;;;;;;10.30;6.10;;;;;;;24.05;68.81;101560.00;5046818;28;20281;-70
2023/06/09 07:46:42;;;;;;;8.40;5.23;;;;;;;24.18;72.26;101587.59;5046290;28;20260;-70
2023/06/09 07:49:08;;;;;;;10.85;5.93;;;;;;;24.38;69.14;101577.50;5043031;28;20205;-70
2023/06/09 07:51:36;;;;;;;10.25;6.22;;;;;;;24.29;68.83;101595.19;5049094;28;20228;-70
2023/06/09 07:54:04;;;;;;;7.53;5.73;;;;;;;24.24;69.51;101602.28;5046688;28;20224;-70
2023/06/09 07:56:29;;;;;;;9.20;6.10;;;;;;;24.37;66.58;101585.38;5049729;28;20225;-70
2023/06/09 07:58:55;;;;;;;8.77;6.00;;;;;;;24.47;67.00;101597.34;5052088;28;20259;-70
2023/06/09 08:01:20;;;;;;;8.43;5.93;;;;;;;24.56;65.22;101586.63;5037651;28;20616;-70
2023/06/09 08:03:46;;;;;;;11.73;5.85;;;;;;;24.69;66.95;101609.03;5047657;28;20240;-70
2023/06/09 08:06:11;;;;;;;7.80;5.47;;;;;;;24.69;62.09;101591.56;5063298;28;20194;-70
2023/06/09 08:08:37;;;;;;;6.97;5.38;;;;;;;24.92;63.60;101611.91;5046454;28;20209;-70
2023/06/09 08:11:02;;;;;;;7.93;5.75;;;;;;;24.96;60.18;101592.56;5048840;28;20186;-70
2023/06/09 08:13:28;;;;;;;9.82;5.75;;;;;;;25.32;54.32;101575.84;5064762;28;20235;-70
2023/06/09 08:15:53;;;;;;;7.30;5.47;;;;;;;25.49;55.31;101592.78;5048545;28;20251;-70
2023/06/09 08:18:19;;;;;;;8.23;4.68;;;;;;;25.73;56.33;101612.16;5030163;28;20202;-70
2023/06/09 08:20:44;;;;;;;8.07;5.47;;;;;;;25.71;55.39;101607.00;5043390;28;20201;-70
2023/06/09 08:23:10;;;;;;;9.63;5.50;;;;;;;25.88;53.32;101594.19;5033133;28;20218;-70
2023/06/09 08:25:36;;;;;;;6.70;5.30;;;;;;;25.66;52.42;101592.28;5045418;28;20210;-70
2023/06/09 08:28:02;;;;;;;8.55;4.95;;;;;;;26.06;52.75;101603.31;5063222;28;20198;-70
2023/06/09 08:30:27;;;;;;;7.03;5.80;;;;;;;25.50;52.40;101617.28;5044271;28;20222;-70
2023/06/09 08:32:53;;;;;;;9.50;5.32;;;;;;;25.58;53.66;101639.75;5044017;28;20213;-70
2023/06/09 08:35:18;;;;;;;8.27;5.18;;;;;;;25.87;50.96;101602.97;5047359;28;20202;-70
2023/06/09 08:37:44;;;;;;;8.75;4.80;;;;;;;26.22;51.82;101617.66;5050791;28;20228;-70
2023/06/09 08:40:10;;;;;;;7.00;5.18;;;;;;;26.02;49.94;101599.06;5059650;28;20237;-70
2023/06/09 08:42:37;;;;;;;9.30;5.63;;;;;;;26.16;48.77;101602.09;5046631;28;20216;-70
2023/06/09 08:45:05;;;;;;;7.57;5.38;;;;;;;26.01;50.42;101624.44;5043716;28;20225;-70
2023/06/09 08:47:32;;;;;;;6.18;4.55;;;;;;;26.29;50.52;101612.13;5047758;28;20278;-70
2023/06/09 08:49:59;;;;;;;8.00;4.72;;;;;;;26.52;48.42;101593.00;5051158;28;20188;-70
2023/06/09 08:52:25;;;;;;;10.77;5.35;;;;;;;26.30;47.12;101605.97;5043563;28;20305;-70
2023/06/09 08:54:52;;;;;;;8.43;5.10;;;;;;;26.17;47.80;101617.81;5048108;28;20207;-70
2023/06/09 08:57:18;;;;;;;8.15;4.95;;;;;;;26.58;46.66;101598.94;5048073;28;20313;-70
2023/06/09 08:59:46;;;;;;;6.93;4.43;;;;;;;26.64;44.70;101593.47;5046534;28;20263;-70
2023/06/09 09:02:13;;;;;;;8.45;4.93;;;;;;;26.72;45.62;101672.06;5047764;28;20566;-70
2023/06/09 09:04:38;;;;;;;7.80;4.68;;;;;;;26.72;45.33;101670.31;5050060;28;20190;-70
2023/06/09 09:07:08;;;;;;;7.15;4.60;;;;;;;27.07;45.68;101656.78;5041010;28;20577;-70
2023/06/09 09:09:34;;;;;;;6.35;4.70;;;;;;;27.54;42.89;101642.78;5048084;28;20202;-70
2023/06/09 09:12:02;;;;;;;7.88;4.60;;;;;;;27.48;40.12;101640.38;5064031;28;20304;-71
2023/06/09 09:14:27;;;;;;;4.28;3.70;;;;;;;27.60;40.50;101657.50;5038621;28;20194;-71
2023/06/09 09:16:53;;;;;;;4.10;3.70;;;;;;;27.67;41.60;101677.44;5046518;28;20235;-70
2023/06/09 09:19:29;;;;;;;7.50;4.47;;;;;;;27.81;42.41;101704.13;5044010;28;20261;-70
2023/06/09 09:22:06;;;;;;;5.20;3.88;;;;;;;28.00;39.27;101640.13;5047728;28;20194;-70
2023/06/09 09:24:34;;;;;;;6.90;4.45;;;;;;;27.99;39.50;101650.72;5048111;28;20221;-70
2023/06/09 09:27:00;;;;;;;4.85;4.35;;;;;;;27.86;40.57;101679.31;5047996;28;20221;-70
2023/06/09 09:29:26;;;;;;;6.18;4.35;;;;;;;27.84;40.15;101662.72;5041774;28;20206;-70
2023/06/09 09:31:58;;;;;;;5.75;4.47;;;;;;;28.06;39.07;101658.34;5045800;28;20689;-70
2023/06/09 09:34:25;;;;;;;6.93;4.00;;;;;;;28.20;38.29;101665.69;5038452;28;20194;-70
2023/06/09 09:36:55;;;;;;;6.93;4.50;;;;;;;28.05;38.43;101656.59;5048884;28;20267;-70
2023/06/09 09:39:24;;;;;;;5.45;4.28;;;;;;;28.01;37.88;101655.03;5056201;28;20217;-70
2023/06/09 09:42:08;;;;;;;7.93;4.70;;;;;;;28.44;39.23;101676.13;5047564;28;20284;-70
2023/06/09 09:44:40;;;;;;;5.97;4.10;;;;;;;28.65;38.60;101667.31;5044172;28;20185;-70
2023/06/09 09:47:08;;;;;;;9.30;4.63;;;;;;;28.61;37.21;101654.34;5043969;28;20803;-70
2023/06/09 09:49:34;;;;;;;6.10;4.50;;;;;;;28.55;38.62;101681.81;5043426;28;20190;-71
2023/06/09 09:52:00;;;;;;;7.47;4.60;;;;;;;28.50;38.81;101683.78;5049324;28;20294;-71
2023/06/09 09:54:27;;;;;;;5.93;4.20;;;;;;;28.45;38.97;101672.56;5046395;28;20244;-70
2023/06/09 09:56:55;;;;;;;5.60;4.40;;;;;;;28.50;38.04;101657.41;5042558;28;20189;-70
2023/06/09 09:59:22;;;;;;;6.45;4.38;;;;;;;28.59;38.20;101658.81;5041567;28;20315;-71
2023/06/09 10:01:50;;;;;;;8.32;4.38;;;;;;;28.79;39.10;101691.34;5046591;28;20201;-71
2023/06/09 10:04:17;;;;;;;4.85;4.05;;;;;;;28.76;37.11;101641.38;5043538;28;20206;-70
2023/06/09 10:06:43;;;;;;;4.68;4.22;;;;;;;28.72;35.74;101647.69;5047417;28;20231;-71
2023/06/09 10:09:09;;;;;;;5.25;4.03;;;;;;;29.10;37.40;101677.75;5048426;28;20279;-71
2023/06/09 10:11:35;;;;;;;6.28;4.30;;;;;;;29.02;36.97;101653.47;5044537;28;20201;-71
2023/06/09 10:14:01;;;;;;;5.32;4.22;;;;;;;29.27;36.73;101654.97;5041528;28;20847;-71
2023/06/09 10:16:27;;;;;;;5.05;4.40;;;;;;;29.20;36.15;101655.31;5044575;28;20201;-73
2023/06/09 10:18:53;;;;;;;4.35;3.85;;;;;;;29.22;34.63;101634.97;5041174;28;20622;-74
2023/06/09 10:21:20;;;;;;;5.00;3.60;;;;;;;29.42;34.52;101664.81;5037541;28;20741;-73
2023/06/09 10:23:46;;;;;;;6.13;3.90;;;;;;;29.35;34.91;101670.44;5048368;28;20222;-72
2023/06/09 10:26:12;;;;;;;7.80;3.53;;;;;;;29.24;32.97;101635.75;5064784;28;20192;-73
2023/06/09 10:28:38;;;;;;;6.60;3.88;;;;;;;29.45;33.79;101662.06;5047009;28;20196;-73
2023/06/09 10:31:07;;;;;;;6.43;4.45;;;;;;;29.57;35.24;101698.47;5046355;28;20189;-73
2023/06/09 10:33:35;;;;;;;6.10;3.88;;;;;;;29.38;33.73;101665.88;5044051;28;20220;-73
2023/06/09 10:36:07;;;;;;;4.82;4.00;;;;;;;29.21;34.67;101697.47;5045304;28;20236;-71
2023/06/09 10:38:53;;;;;;;4.88;4.10;;;;;;;29.52;34.46;101681.13;5047506;28;20281;-71
2023/06/09 10:41:28;;;;;;;6.07;4.10;;;;;;;29.42;35.16;101672.75;5045796;28;20268;-70
2023/06/09 10:44:17;;;;;;;5.72;3.75;;;;;;;29.54;34.54;101656.34;5047580;28;20236;-71
2023/06/09 10:46:45;;;;;;;6.47;4.50;;;;;;;29.56;35.21;101678.28;5042228;28;20193;-71
2023/06/09 10:49:26;;;;;;;5.13;4.00;;;;;;;29.72;35.41;101675.81;5040886;28;20256;-72
2023/06/09 10:51:52;;;;;;;6.55;4.15;;;;;;;29.54;34.28;101645.78;5044978;28;20221;-72
2023/06/09 10:54:27;;;;;;;4.85;3.75;;;;;;;29.69;33.59;101625.75;5045188;28;20189;-72
2023/06/09 10:57:00;;;;;;;5.50;3.83;;;;;;;29.79;34.02;101654.31;5039018;28;20292;-71
2023/06/09 10:59:25;;;;;;;6.90;4.18;;;;;;;29.67;33.81;101633.78;5040988;28;20221;-71
2023/06/09 11:02:03;;;;;;;6.97;4.80;;;;;;;29.82;34.44;101672.66;5041227;28;20205;-72
2023/06/09 11:04:37;;;;;;;6.53;4.22;;;;;;;29.56;33.93;101643.97;5053446;28;20202;-72
2023/06/09 11:07:23;;;;;;;5.05;4.05;;;;;;;29.84;34.89;101647.03;5045665;28;20283;-72
2023/06/09 11:09:49;;;;;;;5.68;4.15;;;;;;;30.19;33.56;101647.16;5033845;28;20220;-70
2023/06/09 11:12:36;;;;;;;5.15;3.97;;;;;;;30.21;33.27;101616.22;5045429;28;20237;-70
2023/06/09 11:15:02;;;;;;;4.35;3.78;;;;;;;30.20;32.81;101606.56;5047377;28;20232;-70
2023/06/09 11:17:41;;;;;;;6.65;4.13;;;;;;;30.08;33.95;101635.28;5036400;28;20193;-70
2023/06/09 11:20:09;;;;;;;5.25;4.47;;;;;;;30.00;32.92;101608.38;5037061;28;20278;-70